sensor_id;sensor_type;location;lat;lon;timestamp;pressure;altitude;pressure_sealevel;temperature;humidity
14041;BME280;7095;51.388;6.196;2023-02-18T00:01:41;75282.31;;;-145.32;100.00
14041;BME280;7095;51.388;6.196;2023-02-18T00:04:09;75538.44;;;-145.32;100.00
14041;BME280;7095;51.388;6.196;2023-02-18T00:06:38;75538.44;;;-145.32;100.00
14041;BME280;7095;51.388;6.196;2023-02-18T00:09:06;75794.56;;;-145.32;100.00
14041;BME280;7095;51.388;6.196;2023-02-18T00:11:36;75538.44;;;-145.32;100.00
14041;BME280;7095;51.388;6.196;2023-02-18T00:14:07;76306.91;;;-145.32;100.00
14041;BME280;7095;51.388;6.196;2023-02-18T00:16:39;76306.91;;;-145.32;100.00
14041;BME280;7095;51.388;6.196;2023-02-18T00:19:11;76050.72;;;-145.32;100.00
14041;BME280;7095;51.388;6.196;2023-02-18T00:21:40;76306.91;;;-145.32;100.00
14041;BME280;7095;51.388;6.196;2023-02-18T00:24:12;76306.91;;;-145.32;100.00
14041;BME280;7095;51.388;6.196;2023-02-18T00:26:42;75794.56;;;-145.32;100.00
14041;BME280;7095;51.388;6.196;2023-02-18T00:29:11;75794.56;;;-145.32;100.00
14041;BME280;7095;51.388;6.196;2023-02-18T00:31:42;76306.91;;;-145.32;100.00
14041;BME280;7095;51.388;6.196;2023-02-18T00:34:11;76050.72;;;-145.32;100.00
14041;BME280;7095;51.388;6.196;2023-02-18T00:36:40;76306.91;;;-145.32;100.00
14041;BME280;7095;51.388;6.196;2023-02-18T00:39:10;77075.53;;;-145.32;100.00
14041;BME280;7095;51.388;6.196;2023-02-18T00:41:40;77331.78;;;-145.32;100.00
14041;BME280;7095;51.388;6.196;2023-02-18T00:44:09;77844.31;;;-145.32;100.00
14041;BME280;7095;51.388;6.196;2023-02-18T00:46:39;77588.03;;;-145.32;100.00
14041;BME280;7095;51.388;6.196;2023-02-18T00:49:09;77844.31;;;-145.32;100.00
14041;BME280;7095;51.388;6.196;2023-02-18T00:51:38;77588.03;;;-145.32;100.00
14041;BME280;7095;51.388;6.196;2023-02-18T00:54:06;77844.31;;;-145.32;100.00
14041;BME280;7095;51.388;6.196;2023-02-18T00:56:35;77844.31;;;-145.32;100.00
14041;BME280;7095;51.388;6.196;2023-02-18T00:59:03;78356.94;;;-145.32;100.00
14041;BME280;7095;51.388;6.196;2023-02-18T01:01:32;79126.03;;;-145.32;100.00
14041;BME280;7095;51.388;6.196;2023-02-18T01:04:01;79382.44;;;-145.32;100.00
14041;BME280;7095;51.388;6.196;2023-02-18T01:06:32;79126.03;;;-145.32;100.00
14041;BME280;7095;51.388;6.196;2023-02-18T01:09:01;79638.84;;;-145.32;100.00
14041;BME280;7095;51.388;6.196;2023-02-18T01:11:30;80664.72;;;-145.32;100.00
14041;BME280;7095;51.388;6.196;2023-02-18T01:14:02;80408.22;;;-145.32;100.00
14041;BME280;7095;51.388;6.196;2023-02-18T01:16:30;80921.25;;;-145.32;100.00
14041;BME280;7095;51.388;6.196;2023-02-18T01:18:59;81947.50;;;-145.32;100.00
14041;BME280;7095;51.388;6.196;2023-02-18T01:21:27;82717.38;;;-145.32;100.00
14041;BME280;7095;51.388;6.196;2023-02-18T01:23:57;82974.03;;;-145.32;100.00
14041;BME280;7095;51.388;6.196;2023-02-18T01:26:26;83744.16;;;-145.32;100.00
14041;BME280;7095;51.388;6.196;2023-02-18T01:28:54;84514.44;;;-145.32;100.00
14041;BME280;7095;51.388;6.196;2023-02-18T01:31:23;86055.56;;;-145.32;100.00
14041;BME280;7095;51.388;6.196;2023-02-18T01:33:52;87340.31;;;-145.32;100.00
14041;BME280;7095;51.388;6.196;2023-02-18T01:36:20;88625.56;;;-145.32;100.00
14041;BME280;7095;51.388;6.196;2023-02-18T01:38:48;89911.31;;;-145.32;100.00
14041;BME280;7095;51.388;6.196;2023-02-18T01:41:19;91197.50;;;-145.32;100.00
14041;BME280;7095;51.388;6.196;2023-02-18T01:43:47;92226.81;;;-145.32;100.00
14041;BME280;7095;51.388;6.196;2023-02-18T01:46:18;92999.00;;;-145.32;100.00
14041;BME280;7095;51.388;6.196;2023-02-18T01:48:50;94543.91;;;-145.32;100.00
14041;BME280;7095;51.388;6.196;2023-02-18T01:51:24;95316.59;;;-145.32;100.00
14041;BME280;7095;51.388;6.196;2023-02-18T01:53:56;96089.47;;;-145.32;100.00
14041;BME280;7095;51.388;6.196;2023-02-18T01:56:31;97635.72;;;-145.32;100.00
14041;BME280;7095;51.388;6.196;2023-02-18T01:59:05;98409.13;;;-145.32;100.00
14041;BME280;7095;51.388;6.196;2023-02-18T02:01:34;99440.56;;;-145.32;100.00
14041;BME280;7095;51.388;6.196;2023-02-18T02:04:03;100214.34;;;-145.32;100.00
14041;BME280;7095;51.388;6.196;2023-02-18T02:06:33;100730.31;;;-145.32;100.00
14041;BME280;7095;51.388;6.196;2023-02-18T02:09:03;101504.38;;;-145.32;100.00
14041;BME280;7095;51.388;6.196;2023-02-18T02:12:08;102020.53;;;-145.32;100.00
14041;BME280;7095;51.388;6.196;2023-02-18T02:14:52;102536.75;;;-145.32;100.00
14041;BME280;7095;51.388;6.196;2023-02-18T02:17:30;103053.06;;;-145.32;100.00
14041;BME280;7095;51.388;6.196;2023-02-18T02:20:27;103311.25;;;-145.32;100.00
14041;BME280;7095;51.388;6.196;2023-02-18T02:29:30;105894.09;;;-145.32;100.00
14041;BME280;7095;51.388;6.196;2023-02-18T02:32:31;106927.75;;;-145.32;100.00
14041;BME280;7095;51.388;6.196;2023-02-18T02:35:10;107186.22;;;-145.32;100.00
14041;BME280;7095;51.388;6.196;2023-02-18T02:37:48;108478.84;;;-145.32;100.00
14041;BME280;7095;51.388;6.196;2023-02-18T02:40:24;109513.28;;;-145.32;100.00
14041;BME280;7095;51.388;6.196;2023-02-18T02:43:05;109771.94;;;-145.32;100.00
14041;BME280;7095;51.388;6.196;2023-02-18T02:45:47;109771.94;;;-145.32;100.00
14041;BME280;7095;51.388;6.196;2023-02-18T02:48:30;110030.59;;;-145.32;100.00
14041;BME280;7095;51.388;6.196;2023-02-18T02:51:06;110289.28;;;-145.32;100.00
14041;BME280;7095;51.388;6.196;2023-02-18T02:53:39;110289.28;;;-145.32;100.00
14041;BME280;7095;51.388;6.196;2023-02-18T02:56:12;110289.28;;;-145.32;100.00
14041;BME280;7095;51.388;6.196;2023-02-18T02:58:43;110806.75;;;-145.32;100.00
14041;BME280;7095;51.388;6.196;2023-02-18T03:01:20;111065.50;;;-145.32;100.00
14041;BME280;7095;51.388;6.196;2023-02-18T03:04:13;110806.75;;;-145.32;100.00
14041;BME280;7095;51.388;6.196;2023-02-18T03:07:01;111065.50;;;-145.32;100.00
14041;BME280;7095;51.388;6.196;2023-02-18T03:09:46;111324.28;;;-145.32;100.00
14041;BME280;7095;51.388;6.196;2023-02-18T03:12:25;111324.28;;;-145.32;100.00
14041;BME280;7095;51.388;6.196;2023-02-18T03:15:04;111065.50;;;-145.32;100.00
14041;BME280;7095;51.388;6.196;2023-02-18T03:17:39;111324.28;;;-145.32;100.00
14041;BME280;7095;51.388;6.196;2023-02-18T03:20:19;111324.28;;;-145.32;100.00
14041;BME280;7095;51.388;6.196;2023-02-18T03:22:53;111583.06;;;-145.32;100.00
14041;BME280;7095;51.388;6.196;2023-02-18T03:25:24;111841.88;;;-145.32;100.00
14041;BME280;7095;51.388;6.196;2023-02-18T03:27:55;111841.88;;;-145.32;100.00
14041;BME280;7095;51.388;6.196;2023-02-18T03:30:27;111841.88;;;-145.32;100.00
14041;BME280;7095;51.388;6.196;2023-02-18T03:32:59;111583.06;;;-145.32;100.00
14041;BME280;7095;51.388;6.196;2023-02-18T03:35:31;111841.88;;;-145.32;100.00
14041;BME280;7095;51.388;6.196;2023-02-18T03:38:07;111841.88;;;-145.32;100.00
14041;BME280;7095;51.388;6.196;2023-02-18T03:40:37;112100.69;;;-145.32;100.00
14041;BME280;7095;51.388;6.196;2023-02-18T03:43:06;112359.53;;;-145.32;100.00
14041;BME280;7095;51.388;6.196;2023-02-18T03:45:35;112359.53;;;-145.32;100.00
14041;BME280;7095;51.388;6.196;2023-02-18T03:48:04;112618.41;;;-145.32;100.00
14041;BME280;7095;51.388;6.196;2023-02-18T03:50:33;112877.31;;;-145.32;100.00
14041;BME280;7095;51.388;6.196;2023-02-18T03:53:03;112618.41;;;-145.32;100.00
14041;BME280;7095;51.388;6.196;2023-02-18T03:55:31;113136.22;;;-145.32;100.00
14041;BME280;7095;51.388;6.196;2023-02-18T03:58:00;113136.22;;;-145.32;100.00
14041;BME280;7095;51.388;6.196;2023-02-18T04:00:28;113136.22;;;-145.32;100.00
14041;BME280;7095;51.388;6.196;2023-02-18T04:02:56;113395.13;;;-145.32;100.00
14041;BME280;7095;51.388;6.196;2023-02-18T04:05:25;113395.13;;;-145.32;100.00
14041;BME280;7095;51.388;6.196;2023-02-18T04:07:54;113395.13;;;-145.32;100.00
14041;BME280;7095;51.388;6.196;2023-02-18T04:10:24;113395.13;;;-145.32;100.00
14041;BME280;7095;51.388;6.196;2023-02-18T04:12:52;113395.13;;;-145.32;100.00
14041;BME280;7095;51.388;6.196;2023-02-18T04:15:21;113654.06;;;-145.32;100.00
14041;BME280;7095;51.388;6.196;2023-02-18T04:17:50;113654.06;;;-145.32;100.00
14041;BME280;7095;51.388;6.196;2023-02-18T04:20:18;113913.03;;;-145.32;100.00
14041;BME280;7095;51.388;6.196;2023-02-18T04:22:48;113913.03;;;-145.32;100.00
14041;BME280;7095;51.388;6.196;2023-02-18T04:25:17;113913.03;;;-145.32;100.00
14041;BME280;7095;51.388;6.196;2023-02-18T04:27:47;114431.03;;;-145.32;100.00
14041;BME280;7095;51.388;6.196;2023-02-18T04:30:15;114690.03;;;-145.32;100.00
14041;BME280;7095;51.388;6.196;2023-02-18T04:32:45;114431.03;;;-145.32;100.00
14041;BME280;7095;51.388;6.196;2023-02-18T04:35:13;114690.03;;;-145.32;100.00
14041;BME280;7095;51.388;6.196;2023-02-18T04:37:42;114949.09;;;-145.32;100.00
14041;BME280;7095;51.388;6.196;2023-02-18T04:40:11;115208.13;;;-145.32;100.00
14041;BME280;7095;51.388;6.196;2023-02-18T04:42:39;115208.13;;;-145.32;100.00
14041;BME280;7095;51.388;6.196;2023-02-18T04:45:09;115208.13;;;-145.32;100.00
14041;BME280;7095;51.388;6.196;2023-02-18T04:47:38;115467.22;;;-145.32;100.00
14041;BME280;7095;51.388;6.196;2023-02-18T04:50:07;115467.22;;;-145.32;100.00
14041;BME280;7095;51.388;6.196;2023-02-18T04:52:36;115467.22;;;-145.32;100.00
14041;BME280;7095;51.388;6.196;2023-02-18T04:55:05;115467.22;;;-145.32;100.00
14041;BME280;7095;51.388;6.196;2023-02-18T04:57:34;115467.22;;;-145.32;100.00
14041;BME280;7095;51.388;6.196;2023-02-18T05:00:03;115467.22;;;-145.32;100.00
14041;BME280;7095;51.388;6.196;2023-02-18T05:02:34;115467.22;;;-145.32;100.00
14041;BME280;7095;51.388;6.196;2023-02-18T05:05:03;115726.31;;;-145.32;100.00
14041;BME280;7095;51.388;6.196;2023-02-18T05:07:31;115726.31;;;-145.32;100.00
14041;BME280;7095;51.388;6.196;2023-02-18T05:09:59;115726.31;;;-145.32;100.00
14041;BME280;7095;51.388;6.196;2023-02-18T05:12:28;115726.31;;;-145.32;100.00
14041;BME280;7095;51.388;6.196;2023-02-18T05:14:56;115726.31;;;-145.32;100.00
14041;BME280;7095;51.388;6.196;2023-02-18T05:17:25;115726.31;;;-145.32;100.00
14041;BME280;7095;51.388;6.196;2023-02-18T05:19:55;115726.31;;;-145.32;100.00
14041;BME280;7095;51.388;6.196;2023-02-18T05:22:23;115726.31;;;-145.32;100.00
14041;BME280;7095;51.388;6.196;2023-02-18T05:24:52;115726.31;;;-145.32;100.00
14041;BME280;7095;51.388;6.196;2023-02-18T05:27:20;115728.34;;;-145.32;100.00
14041;BME280;7095;51.388;6.196;2023-02-18T05:29:48;115728.34;;;-145.32;100.00
14041;BME280;7095;51.388;6.196;2023-02-18T05:32:17;115726.31;;;-145.32;100.00
14041;BME280;7095;51.388;6.196;2023-02-18T05:34:45;115728.34;;;-145.32;100.00
14041;BME280;7095;51.388;6.196;2023-02-18T05:37:15;115726.31;;;-145.32;100.00
14041;BME280;7095;51.388;6.196;2023-02-18T05:39:44;115726.31;;;-145.32;100.00
14041;BME280;7095;51.388;6.196;2023-02-18T05:42:13;115726.31;;;-145.32;100.00
14041;BME280;7095;51.388;6.196;2023-02-18T05:44:41;115726.31;;;-145.32;100.00
14041;BME280;7095;51.388;6.196;2023-02-18T05:47:11;115726.31;;;-145.32;100.00
14041;BME280;7095;51.388;6.196;2023-02-18T05:49:41;115726.31;;;-145.32;100.00
14041;BME280;7095;51.388;6.196;2023-02-18T05:52:10;115726.31;;;-145.32;100.00
14041;BME280;7095;51.388;6.196;2023-02-18T05:54:40;115726.31;;;-145.32;100.00
14041;BME280;7095;51.388;6.196;2023-02-18T05:57:09;115726.31;;;-145.32;100.00
14041;BME280;7095;51.388;6.196;2023-02-18T05:59:37;115726.31;;;-145.32;100.00
14041;BME280;7095;51.388;6.196;2023-02-18T06:02:06;115726.31;;;-145.32;100.00
14041;BME280;7095;51.388;6.196;2023-02-18T06:04:34;115726.31;;;-145.32;100.00
14041;BME280;7095;51.388;6.196;2023-02-18T06:07:03;115726.31;;;-145.32;100.00
14041;BME280;7095;51.388;6.196;2023-02-18T06:09:31;115726.31;;;-145.32;100.00
14041;BME280;7095;51.388;6.196;2023-02-18T06:12:01;115726.31;;;-145.32;100.00
14041;BME280;7095;51.388;6.196;2023-02-18T06:14:30;115726.31;;;-145.32;100.00
14041;BME280;7095;51.388;6.196;2023-02-18T06:16:58;115726.31;;;-145.32;100.00
14041;BME280;7095;51.388;6.196;2023-02-18T06:19:27;115726.31;;;-145.32;100.00
14041;BME280;7095;51.388;6.196;2023-02-18T06:21:55;115726.31;;;-145.32;100.00
14041;BME280;7095;51.388;6.196;2023-02-18T06:24:24;115467.22;;;-145.32;100.00
14041;BME280;7095;51.388;6.196;2023-02-18T06:26:52;115726.31;;;-145.32;100.00
14041;BME280;7095;51.388;6.196;2023-02-18T06:29:22;115467.22;;;-145.32;100.00
14041;BME280;7095;51.388;6.196;2023-02-18T06:31:51;115467.22;;;-145.32;100.00
14041;BME280;7095;51.388;6.196;2023-02-18T06:34:19;115467.22;;;-145.32;100.00
14041;BME280;7095;51.388;6.196;2023-02-18T06:36:48;115467.22;;;-145.32;100.00
14041;BME280;7095;51.388;6.196;2023-02-18T06:39:16;115726.31;;;-145.32;100.00
14041;BME280;7095;51.388;6.196;2023-02-18T06:41:45;115726.31;;;-145.32;100.00
14041;BME280;7095;51.388;6.196;2023-02-18T06:44:13;115726.31;;;-145.32;100.00
14041;BME280;7095;51.388;6.196;2023-02-18T06:46:44;115726.31;;;-145.32;100.00
14041;BME280;7095;51.388;6.196;2023-02-18T06:49:13;115726.31;;;-145.32;100.00
14041;BME280;7095;51.388;6.196;2023-02-18T06:51:41;115726.31;;;-145.32;100.00
14041;BME280;7095;51.388;6.196;2023-02-18T06:54:10;115726.31;;;-145.32;100.00
14041;BME280;7095;51.388;6.196;2023-02-18T06:56:38;115726.31;;;-145.32;100.00
14041;BME280;7095;51.388;6.196;2023-02-18T06:59:07;115726.31;;;-145.32;100.00
14041;BME280;7095;51.388;6.196;2023-02-18T07:01:35;115208.13;;;-145.32;100.00
14041;BME280;7095;51.388;6.196;2023-02-18T07:04:05;114949.09;;;-145.32;100.00
14041;BME280;7095;51.388;6.196;2023-02-18T07:06:33;114690.03;;;-145.32;100.00
14041;BME280;7095;51.388;6.196;2023-02-18T07:09:02;113913.03;;;-145.32;100.00
14041;BME280;7095;51.388;6.196;2023-02-18T07:11:30;113136.22;;;-145.32;100.00
14041;BME280;7095;51.388;6.196;2023-02-18T07:13:59;112359.53;;;-145.32;100.00
14041;BME280;7095;51.388;6.196;2023-02-18T07:16:27;112100.69;;;-145.32;100.00
14041;BME280;7095;51.388;6.196;2023-02-18T07:18:56;111065.50;;;-145.32;100.00
14041;BME280;7095;51.388;6.196;2023-02-18T07:21:26;109771.94;;;-145.32;100.00
14041;BME280;7095;51.388;6.196;2023-02-18T07:23:54;108996.00;;;-145.32;100.00
14041;BME280;7095;51.388;6.196;2023-02-18T07:26:22;108996.00;;;-145.32;100.00
14041;BME280;7095;51.388;6.196;2023-02-18T07:28:53;108737.41;;;-145.32;100.00
14041;BME280;7095;51.388;6.196;2023-02-18T07:31:22;109254.63;;;-145.32;100.00
14041;BME280;7095;51.388;6.196;2023-02-18T07:33:50;109513.28;;;-145.32;100.00
14041;BME280;7095;51.388;6.196;2023-02-18T07:36:19;109771.94;;;-145.32;100.00
14041;BME280;7095;51.388;6.196;2023-02-18T07:38:49;109771.94;;;-145.32;100.00
14041;BME280;7095;51.388;6.196;2023-02-18T07:41:19;110030.59;;;-145.32;100.00
14041;BME280;7095;51.388;6.196;2023-02-18T07:43:48;110289.28;;;-145.32;100.00
14041;BME280;7095;51.388;6.196;2023-02-18T07:46:16;110289.28;;;-145.32;100.00
14041;BME280;7095;51.388;6.196;2023-02-18T07:48:45;110030.59;;;-145.32;100.00
14041;BME280;7095;51.388;6.196;2023-02-18T07:51:13;109513.28;;;-145.32;100.00
14041;BME280;7095;51.388;6.196;2023-02-18T07:53:42;108737.41;;;-145.32;100.00
14041;BME280;7095;51.388;6.196;2023-02-18T07:56:12;108220.28;;;-145.32;100.00
14041;BME280;7095;51.388;6.196;2023-02-18T07:58:40;108220.28;;;-145.32;100.00
14041;BME280;7095;51.388;6.196;2023-02-18T08:01:11;107961.72;;;-145.32;100.00
14041;BME280;7095;51.388;6.196;2023-02-18T08:03:42;108220.28;;;-145.32;100.00
14041;BME280;7095;51.388;6.196;2023-02-18T08:06:19;107961.72;;;-145.32;100.00
14041;BME280;7095;51.388;6.196;2023-02-18T08:08:48;107703.22;;;-145.32;100.00
14041;BME280;7095;51.388;6.196;2023-02-18T08:11:18;107961.72;;;-145.32;100.00
14041;BME280;7095;51.388;6.196;2023-02-18T08:13:47;107444.69;;;-145.32;100.00
14041;BME280;7095;51.388;6.196;2023-02-18T08:16:16;107186.22;;;-145.32;100.00
14041;BME280;7095;51.388;6.196;2023-02-18T08:18:45;105894.09;;;-145.32;100.00
14041;BME280;7095;51.388;6.196;2023-02-18T08:21:18;103827.66;;;-145.32;100.00
14041;BME280;7095;51.388;6.196;2023-02-18T08:23:47;102794.91;;;-145.32;100.00
14041;BME280;7095;51.388;6.196;2023-02-18T08:26:19;101504.38;;;-145.32;100.00
14041;BME280;7095;51.388;6.196;2023-02-18T08:28:48;100472.31;;;-145.32;100.00
14041;BME280;7095;51.388;6.196;2023-02-18T08:31:18;99698.47;;;-145.32;100.00
14041;BME280;7095;51.388;6.196;2023-02-18T08:33:47;98151.31;;;-145.32;100.00
14041;BME280;7095;51.388;6.196;2023-02-18T08:36:16;96604.81;;;-145.32;100.00
14041;BME280;7095;51.388;6.196;2023-02-18T08:38:44;95574.19;;;-145.32;100.00
14041;BME280;7095;51.388;6.196;2023-02-18T08:41:13;94286.38;;;-145.32;100.00
14041;BME280;7095;51.388;6.196;2023-02-18T08:43:44;92484.19;;;-145.32;100.00
14041;BME280;7095;51.388;6.196;2023-02-18T08:46:12;91197.50;;;-145.32;100.00
14041;BME280;7095;51.388;6.196;2023-02-18T08:48:52;88882.69;;;-145.32;100.00
14041;BME280;7095;51.388;6.196;2023-02-18T08:51:21;88882.69;;;-145.32;100.00
14041;BME280;7095;51.388;6.196;2023-02-18T08:53:50;87854.38;;;-145.32;100.00
14041;BME280;7095;51.388;6.196;2023-02-18T08:56:18;86055.56;;;-145.32;100.00
14041;BME280;7095;51.388;6.196;2023-02-18T08:58:48;82717.38;;;-145.32;100.00
14041;BME280;7095;51.388;6.196;2023-02-18T09:01:17;81690.91;;;-145.32;100.00
14041;BME280;7095;51.388;6.196;2023-02-18T09:03:47;81177.78;;;-145.32;100.00
14041;BME280;7095;51.388;6.196;2023-02-18T09:06:15;80151.75;;;-145.32;100.00
14041;BME280;7095;51.388;6.196;2023-02-18T09:08:44;79895.28;;;-145.32;100.00
14041;BME280;7095;51.388;6.196;2023-02-18T09:11:12;79382.44;;;-145.32;100.00
14041;BME280;7095;51.388;6.196;2023-02-18T09:13:40;78613.28;;;-145.32;100.00
14041;BME280;7095;51.388;6.196;2023-02-18T09:16:13;77588.03;;;-145.32;100.00
14041;BME280;7095;51.388;6.196;2023-02-18T09:18:45;77331.78;;;-145.32;100.00
14041;BME280;7095;51.388;6.196;2023-02-18T09:21:14;74258.06;;;-145.32;100.00
14041;BME280;7095;51.388;6.196;2023-02-18T09:23:46;71187.13;;;-145.32;100.00
14041;BME280;7095;51.388;6.196;2023-02-18T09:26:17;70657.56;;;-145.32;100.00
14041;BME280;7095;51.388;6.196;2023-02-18T09:28:47;68590.16;;;-145.32;100.00
14041;BME280;7095;51.388;6.196;2023-02-18T09:31:19;66993.00;;;-145.32;100.00
14041;BME280;7095;51.388;6.196;2023-02-18T09:33:50;65237.00;;;-145.32;100.00
14041;BME280;7095;51.388;6.196;2023-02-18T09:36:19;64082.13;;;-145.32;100.00
14041;BME280;7095;51.388;6.196;2023-02-18T09:38:47;64211.75;;;-145.32;100.00
14041;BME280;7095;51.388;6.196;2023-02-18T09:41:26;63569.66;;;-145.32;100.00
14041;BME280;7095;51.388;6.196;2023-02-18T09:43:58;63868.75;;;-145.32;100.00
14041;BME280;7095;51.388;6.196;2023-02-18T09:46:33;63727.16;;;-145.32;100.00
14041;BME280;7095;51.388;6.196;2023-02-18T09:49:03;64871.97;;;-145.32;100.00
14041;BME280;7095;51.388;6.196;2023-02-18T09:51:34;63970.47;;;-145.32;100.00
14041;BME280;7095;51.388;6.196;2023-02-18T09:54:03;63144.97;;;-145.32;100.00
14041;BME280;7095;51.388;6.196;2023-02-18T09:56:32;62869.84;;;-145.32;100.00
14041;BME280;7095;51.388;6.196;2023-02-18T09:59:11;61942.97;;;-145.32;100.00
14041;BME280;7095;51.388;6.196;2023-02-18T10:01:42;61179.72;;;-145.32;100.00
14041;BME280;7095;51.388;6.196;2023-02-18T10:04:15;62164.19;;;-145.32;100.00
14041;BME280;7095;51.388;6.196;2023-02-18T10:06:45;64895.88;;;-145.32;100.00
14041;BME280;7095;51.388;6.196;2023-02-18T10:09:18;65831.56;;;-145.32;100.00
14041;BME280;7095;51.388;6.196;2023-02-18T10:11:51;70176.06;;;-145.32;100.00
14041;BME280;7095;51.388;6.196;2023-02-18T10:14:23;71442.94;;;-145.32;100.00
14041;BME280;7095;51.388;6.196;2023-02-18T10:16:54;72466.34;;;-145.32;100.00
14041;BME280;7095;51.388;6.196;2023-02-18T10:19:27;72466.34;;;-145.32;100.00
14041;BME280;7095;51.388;6.196;2023-02-18T10:21:57;74002.03;;;-145.32;100.00
14041;BME280;7095;51.388;6.196;2023-02-18T10:24:30;74770.16;;;-145.32;100.00
14041;BME280;7095;51.388;6.196;2023-02-18T10:27:01;75282.31;;;-145.32;100.00
14041;BME280;7095;51.388;6.196;2023-02-18T10:29:31;74770.16;;;-145.32;100.00
14041;BME280;7095;51.388;6.196;2023-02-18T10:32:05;76050.72;;;-145.32;100.00
14041;BME280;7095;51.388;6.196;2023-02-18T10:34:39;77844.31;;;-145.32;100.00
14041;BME280;7095;51.388;6.196;2023-02-18T10:37:30;80151.75;;;-145.32;100.00
14041;BME280;7095;51.388;6.196;2023-02-18T10:40:08;80921.25;;;-145.32;100.00
14041;BME280;7095;51.388;6.196;2023-02-18T10:42:46;82974.03;;;-145.32;100.00
14041;BME280;7095;51.388;6.196;2023-02-18T10:45:27;86312.47;;;-145.32;100.00
14041;BME280;7095;51.388;6.196;2023-02-18T10:48:14;87340.31;;;-145.32;100.00
14041;BME280;7095;51.388;6.196;2023-02-18T10:50:49;89139.81;;;-145.32;100.00
14041;BME280;7095;51.388;6.196;2023-02-18T10:53:29;90682.97;;;-145.32;100.00
14041;BME280;7095;51.388;6.196;2023-02-18T10:55:58;93256.44;;;-145.32;100.00
14041;BME280;7095;51.388;6.196;2023-02-18T10:58:31;94286.38;;;-145.32;100.00
14041;BME280;7095;51.388;6.196;2023-02-18T11:01:03;96089.47;;;-145.32;100.00
14041;BME280;7095;51.388;6.196;2023-02-18T11:03:41;97377.97;;;-145.32;100.00
14041;BME280;7095;51.388;6.196;2023-02-18T11:06:21;99182.69;;;-145.32;100.00
14041;BME280;7095;51.388;6.196;2023-02-18T11:08:52;100472.31;;;-145.32;100.00
14041;BME280;7095;51.388;6.196;2023-02-18T11:11:24;102020.53;;;-145.32;100.00
14041;BME280;7095;51.388;6.196;2023-02-18T11:13:56;103311.25;;;-145.32;100.00
14041;BME280;7095;51.388;6.196;2023-02-18T11:16:36;104860.72;;;-145.32;100.00
14041;BME280;7095;51.388;6.196;2023-02-18T11:19:30;106410.88;;;-145.32;100.00
14041;BME280;7095;51.388;6.196;2023-02-18T11:22:07;106927.75;;;-145.32;100.00
14041;BME280;7095;51.388;6.196;2023-02-18T11:24:37;107961.72;;;-145.32;100.00
14041;BME280;7095;51.388;6.196;2023-02-18T11:27:08;108996.00;;;-145.32;100.00
14041;BME280;7095;51.388;6.196;2023-02-18T11:29:40;109771.94;;;-145.32;100.00
14041;BME280;7095;51.388;6.196;2023-02-18T11:32:10;110030.59;;;-145.32;100.00
14041;BME280;7095;51.388;6.196;2023-02-18T11:34:42;111065.50;;;-145.32;100.00
14041;BME280;7095;51.388;6.196;2023-02-18T11:37:16;111841.88;;;-145.32;100.00
14041;BME280;7095;51.388;6.196;2023-02-18T11:39:49;111583.06;;;-145.32;100.00
14041;BME280;7095;51.388;6.196;2023-02-18T11:42:20;112100.69;;;-145.32;100.00
14041;BME280;7095;51.388;6.196;2023-02-18T11:44:51;112618.41;;;-145.32;100.00
14041;BME280;7095;51.388;6.196;2023-02-18T11:47:24;112877.31;;;-145.32;100.00
14041;BME280;7095;51.388;6.196;2023-02-18T11:50:16;113395.13;;;-145.32;100.00
14041;BME280;7095;51.388;6.196;2023-02-18T11:52:46;113913.03;;;-145.32;100.00
14041;BME280;7095;51.388;6.196;2023-02-18T11:55:17;113913.03;;;-145.32;100.00
14041;BME280;7095;51.388;6.196;2023-02-18T11:57:49;114431.03;;;-145.32;100.00
14041;BME280;7095;51.388;6.196;2023-02-18T12:00:22;114949.09;;;-145.32;100.00
14041;BME280;7095;51.388;6.196;2023-02-18T12:02:53;114949.09;;;-145.32;100.00
14041;BME280;7095;51.388;6.196;2023-02-18T12:05:26;114949.09;;;-145.32;100.00
14041;BME280;7095;51.388;6.196;2023-02-18T12:07:58;115208.13;;;-145.32;100.00
14041;BME280;7095;51.388;6.196;2023-02-18T12:10:32;115208.13;;;-145.32;100.00
14041;BME280;7095;51.388;6.196;2023-02-18T12:13:06;115208.13;;;-145.32;100.00
14041;BME280;7095;51.388;6.196;2023-02-18T12:15:51;115208.13;;;-145.32;100.00
14041;BME280;7095;51.388;6.196;2023-02-18T12:18:32;115467.22;;;-145.32;100.00
14041;BME280;7095;51.388;6.196;2023-02-18T12:21:22;115467.22;;;-145.32;100.00
14041;BME280;7095;51.388;6.196;2023-02-18T12:24:00;115467.22;;;-145.32;100.00
14041;BME280;7095;51.388;6.196;2023-02-18T12:26:35;115467.22;;;-145.32;100.00
14041;BME280;7095;51.388;6.196;2023-02-18T12:29:19;115726.31;;;-145.32;100.00
14041;BME280;7095;51.388;6.196;2023-02-18T12:32:11;115726.31;;;-145.32;100.00
14041;BME280;7095;51.388;6.196;2023-02-18T12:34:55;115726.31;;;-145.32;100.00
14041;BME280;7095;51.388;6.196;2023-02-18T12:37:41;115726.31;;;-145.32;100.00
14041;BME280;7095;51.388;6.196;2023-02-18T12:40:33;115728.34;;;-145.32;100.00
14041;BME280;7095;51.388;6.196;2023-02-18T12:43:11;115728.34;;;-145.32;100.00
14041;BME280;7095;51.388;6.196;2023-02-18T12:45:59;115728.34;;;-145.32;100.00
14041;BME280;7095;51.388;6.196;2023-02-18T12:48:40;115728.34;;;-145.32;100.00
14041;BME280;7095;51.388;6.196;2023-02-18T12:51:22;115728.34;;;-145.32;100.00
14041;BME280;7095;51.388;6.196;2023-02-18T12:54:14;115728.34;;;-145.32;100.00
14041;BME280;7095;51.388;6.196;2023-02-18T12:57:02;115728.34;;;-145.32;100.00
14041;BME280;7095;51.388;6.196;2023-02-18T13:00:02;115728.34;;;-145.32;100.00
14041;BME280;7095;51.388;6.196;2023-02-18T13:03:05;115728.34;;;-145.32;100.00
14041;BME280;7095;51.388;6.196;2023-02-18T13:05:39;115728.34;;;-145.32;100.00